Alaska Railroad Corporation
Mile 43 Hourly Weather Roundup
MILE_43 8/21/2017
CLICK HERE TO SEE GRAPH!!!

        DATE  TIME  Temp   Rel  Wind  Wind  Wind  Wind  WindPeakDi
                      F Humid   Spd   Dir  Gust   Spd  Gust      
                     AVG     %   RMY   RMY   RMY    PT    PT      

   7/22/2017 07:00    49    76     2     9     4     1     3      
   7/22/2017 06:00    48    79     2    13     4     1     4      
   7/22/2017 05:00    48    78     3    77     6     3     7      
   7/22/2017 04:00    48    79     3   116     6     3     7      
   7/22/2017 03:00    49    78     2   152     5     1     6      
   7/22/2017 02:00    49    79     4   306    11     4    11      
   7/22/2017 01:00    50    77     3   301    11     3    13      
   7/21/2017 24:00    50    72     7   278    18     8    20      
   7/21/2017 23:00    52    76     5   324    15     6    16      
   7/21/2017 22:00    52    76     3   205     8     3     8      
   7/21/2017 21:00    55    69     4   264    13     4    11      
   7/21/2017 20:00    55    68     2   223     6     3     7      
   7/21/2017 19:00    56    65     2    34     6     2     7      
   7/21/2017 18:00    57    61     3   122     9     3    11      
   7/21/2017 17:00    56    62     5    38     9     6    11      
   7/21/2017 16:00    64    45     4    63     9     6    11      
   7/21/2017 15:00    60    52     6    40    13     8    13      
   7/21/2017 14:00    60    52     5    40    12     6    14      
   7/21/2017 13:00    55    62     5    34    16     7    23      
   7/21/2017 12:00    52    70     5    28    11     6    11      
   7/21/2017 11:00    54    64     4    18    13     5    16      
   7/21/2017 10:00    47    80     3   332     9     3    10      
   7/21/2017 09:00    45    82     4   350     8     3     8      
   7/21/2017 08:00    45    84     4    26     9     4    10      


CLICK HERE TO SEE GRAPH!!!